createdAt,value
2018-04-10T00:00:50.067Z,54.97
2018-04-10T00:03:17.598Z,55.33
2018-04-10T00:05:45.159Z,55.43
2018-04-10T00:08:12.755Z,55.34
2018-04-10T00:10:40.293Z,55.53
2018-04-10T00:13:07.837Z,55.80
2018-04-10T00:15:35.549Z,55.76
2018-04-10T00:18:03.094Z,55.94
2018-04-10T00:20:30.644Z,55.92
2018-04-10T00:22:58.291Z,56.17
2018-04-10T00:25:25.841Z,56.13
2018-04-10T00:27:53.407Z,56.33
2018-04-10T00:30:21.071Z,56.47
2018-04-10T00:32:48.604Z,56.25
2018-04-10T00:35:16.155Z,56.44
2018-04-10T00:37:43.739Z,56.31
2018-04-10T00:40:11.267Z,55.85
2018-04-10T00:42:38.817Z,56.24
2018-04-10T00:45:06.408Z,56.79
2018-04-10T00:47:33.943Z,57.04
2018-04-10T00:50:03.200Z,57.36
2018-04-10T00:52:30.736Z,57.63
2018-04-10T00:54:58.293Z,57.84
2018-04-10T00:57:25.875Z,57.82
2018-04-10T00:59:53.412Z,57.80
2018-04-10T01:02:20.948Z,58.33
2018-04-10T01:04:48.527Z,58.68
2018-04-10T01:07:16.064Z,58.75
2018-04-10T01:09:43.596Z,59.19
2018-04-10T01:12:11.176Z,59.11
2018-04-10T01:14:38.724Z,59.05
2018-04-10T01:17:06.260Z,59.25
2018-04-10T01:19:33.826Z,59.38
2018-04-10T01:22:01.368Z,59.43
2018-04-10T01:24:28.912Z,59.67
2018-04-10T01:26:56.496Z,59.92
2018-04-10T01:29:24.043Z,59.62
2018-04-10T01:31:51.577Z,59.85
2018-04-10T01:34:19.304Z,60.10
2018-04-10T01:36:46.845Z,60.40
2018-04-10T01:39:14.391Z,60.41
2018-04-10T01:41:42.099Z,60.42
2018-04-10T01:44:09.634Z,60.21
2018-04-10T01:46:37.187Z,60.26
2018-04-10T01:49:04.750Z,60.42
2018-04-10T01:51:32.290Z,60.10
2018-04-10T01:53:59.825Z,59.99
2018-04-10T01:56:27.497Z,59.86
2018-04-10T01:58:55.039Z,59.69
2018-04-10T02:01:22.573Z,59.88
2018-04-10T02:03:50.156Z,60.07
2018-04-10T02:06:17.694Z,58.97
2018-04-10T02:08:45.232Z,59.00
2018-04-10T02:11:12.950Z,59.22
2018-04-10T02:13:40.505Z,59.69
2018-04-10T02:16:08.053Z,59.82
2018-04-10T02:18:35.621Z,59.92
2018-04-10T02:21:03.176Z,60.47
2018-04-10T02:23:30.710Z,60.55
2018-04-10T02:25:58.427Z,60.47
2018-04-10T02:28:25.960Z,60.48
2018-04-10T02:30:53.490Z,60.55
2018-04-10T02:33:21.075Z,60.92
2018-04-10T02:35:48.608Z,61.52
2018-04-10T02:38:16.148Z,62.02
2018-04-10T02:40:43.821Z,61.53
2018-04-10T02:43:11.356Z,61.51
2018-04-10T02:45:38.893Z,62.05
2018-04-10T02:48:06.603Z,62.14
2018-04-10T02:50:34.149Z,62.45
2018-04-10T02:53:01.679Z,62.28
2018-04-10T02:55:29.252Z,62.52
2018-04-10T02:57:56.792Z,62.70
2018-04-10T03:00:24.363Z,63.33
2018-04-10T03:02:51.937Z,63.05
2018-04-10T03:05:19.476Z,63.09
2018-04-10T03:07:47.031Z,63.37
2018-04-10T03:10:14.584Z,63.41
2018-04-10T03:12:42.119Z,63.55
2018-04-10T03:15:09.656Z,63.53
2018-04-10T03:17:37.242Z,63.70
2018-04-10T03:20:04.785Z,63.73
2018-04-10T03:22:32.324Z,63.61
2018-04-10T03:25:00.037Z,63.67
2018-04-10T03:27:27.597Z,63.69
2018-04-10T03:29:55.131Z,63.87
2018-04-10T03:32:22.701Z,64.01
2018-04-10T03:34:50.241Z,63.63
2018-04-10T03:37:17.779Z,63.80
2018-04-10T03:39:45.369Z,63.57
2018-04-10T03:42:12.905Z,63.33
2018-04-10T03:44:40.460Z,63.11
2018-04-10T03:47:08.025Z,63.00
2018-04-10T03:49:35.571Z,63.48
2018-04-10T03:52:03.112Z,63.47
2018-04-10T03:54:30.678Z,63.72
2018-04-10T03:56:58.218Z,63.94
2018-04-10T03:59:25.796Z,63.85
2018-04-10T04:01:53.374Z,64.14
2018-04-10T04:04:20.911Z,64.19
2018-04-10T04:06:48.446Z,62.34
2018-04-10T04:09:16.078Z,61.64
2018-04-10T04:11:43.610Z,61.01
2018-04-10T04:14:11.172Z,59.36
2018-04-10T04:16:50.405Z,59.08
2018-04-10T04:19:29.553Z,56.43
2018-04-10T04:22:08.889Z,55.01
2018-04-10T04:24:36.427Z,53.44
2018-04-10T04:27:03.976Z,51.90
2018-04-10T04:29:31.719Z,48.90
2018-04-10T04:31:59.260Z,46.54
2018-04-10T04:34:26.799Z,45.44
2018-04-10T04:36:54.470Z,45.41
2018-04-10T04:39:22.012Z,45.55
2018-04-10T04:41:49.583Z,46.18
2018-04-10T04:44:17.154Z,44.55
2018-04-10T04:46:44.701Z,42.83
2018-04-10T04:49:12.238Z,40.29
2018-04-10T04:51:39.785Z,38.52
2018-04-10T04:54:07.346Z,36.68
2018-04-10T04:56:34.999Z,35.84
2018-04-10T04:59:02.592Z,36.61
2018-04-10T05:01:30.134Z,37.24
2018-04-10T05:03:57.847Z,40.00
2018-04-10T05:06:25.384Z,41.31
2018-04-10T05:08:52.947Z,42.34
2018-04-10T05:11:20.670Z,43.72
2018-04-10T05:13:48.244Z,44.97
2018-04-10T05:16:15.800Z,46.01
2018-04-10T05:18:43.561Z,47.57
2018-04-10T05:21:11.099Z,48.00
2018-04-10T05:23:38.667Z,47.88
2018-04-10T05:26:06.256Z,47.73
2018-04-10T05:28:33.814Z,48.75
2018-04-10T05:31:01.368Z,49.23
2018-04-10T05:33:28.953Z,49.20
2018-04-10T05:35:56.503Z,48.09
2018-04-10T05:38:24.048Z,48.21
2018-04-10T05:40:51.793Z,44.70
2018-04-10T05:43:19.364Z,39.19
2018-04-10T05:45:46.910Z,33.38
2018-04-10T05:48:14.559Z,30.74
2018-04-10T05:50:42.104Z,29.34
2018-04-10T05:53:09.684Z,27.96
2018-04-10T05:55:37.279Z,28.19
2018-04-10T05:58:04.863Z,27.74
2018-04-10T06:00:32.429Z,27.88
2018-04-10T06:03:00.024Z,27.07
2018-04-10T06:05:27.568Z,27.07
2018-04-10T06:07:55.179Z,27.40
2018-04-10T06:10:22.908Z,27.41
2018-04-10T06:12:50.481Z,27.47
2018-04-10T06:15:18.041Z,27.25
2018-04-10T06:17:45.721Z,27.27
2018-04-10T06:20:14.960Z,27.03
2018-04-10T06:22:42.509Z,27.28
2018-04-10T06:25:10.228Z,27.12
2018-04-10T06:27:37.771Z,27.89
2018-04-10T06:30:05.351Z,28.75
2018-04-10T06:32:33.011Z,29.36
2018-04-10T06:35:00.556Z,30.08
2018-04-10T06:37:28.129Z,31.55
2018-04-10T06:39:55.932Z,32.35
2018-04-10T06:42:23.504Z,34.19
2018-04-10T06:44:51.051Z,35.32
2018-04-10T06:47:18.643Z,35.71
2018-04-10T06:49:46.196Z,36.13
2018-04-10T06:52:13.747Z,36.80
2018-04-10T06:54:41.320Z,36.75
2018-04-10T06:57:08.860Z,37.60
2018-04-10T06:59:36.410Z,37.63
2018-04-10T07:02:03.984Z,38.23
2018-04-10T07:04:31.547Z,38.52
2018-04-10T07:06:59.100Z,37.73
2018-04-10T07:09:26.683Z,37.17
2018-04-10T07:11:54.229Z,36.25
2018-04-10T07:14:21.774Z,35.79
2018-04-10T07:16:49.448Z,35.19
2018-04-10T07:19:16.991Z,36.11
2018-04-10T07:21:44.549Z,35.13
2018-04-10T07:24:12.267Z,34.56
2018-04-10T07:26:39.832Z,34.77
2018-04-10T07:29:07.383Z,34.10
2018-04-10T07:31:35.052Z,34.19
2018-04-10T07:34:02.626Z,34.89
2018-04-10T07:36:30.179Z,33.54
2018-04-10T07:38:57.750Z,33.02
2018-04-10T07:41:25.300Z,32.87
2018-04-10T07:43:52.840Z,33.45
2018-04-10T07:46:20.421Z,33.07
2018-04-10T07:48:47.964Z,31.78
2018-04-10T07:51:15.540Z,31.35
2018-04-10T07:53:43.089Z,31.27
2018-04-10T07:56:10.640Z,31.82
2018-04-10T07:58:38.257Z,31.56
2018-04-10T08:01:05.811Z,31.41
2018-04-10T08:03:33.361Z,31.28
2018-04-10T08:06:01.122Z,30.94
2018-04-10T08:08:28.674Z,30.84
2018-04-10T08:10:56.215Z,31.20
2018-04-10T08:13:23.947Z,32.13
2018-04-10T08:15:51.509Z,31.09
2018-04-10T08:18:19.062Z,31.01
2018-04-10T08:20:46.640Z,30.64
2018-04-10T08:23:14.203Z,29.79
2018-04-10T08:25:41.743Z,30.38
2018-04-10T08:28:09.324Z,30.20
2018-04-10T08:30:36.869Z,29.77
2018-04-10T08:33:04.449Z,29.84
2018-04-10T08:35:32.132Z,30.93
2018-04-10T08:37:59.671Z,31.30
2018-04-10T08:40:27.222Z,31.22
2018-04-10T08:42:54.789Z,32.18
2018-04-10T08:45:22.344Z,31.20
2018-04-10T08:47:49.878Z,30.71
2018-04-10T08:50:17.439Z,30.60
2018-04-10T08:52:45.025Z,29.64
2018-04-10T08:55:12.603Z,29.46
2018-04-10T08:57:40.186Z,30.27
2018-04-10T09:00:07.768Z,30.74
2018-04-10T09:02:35.308Z,31.43
2018-04-10T09:05:02.880Z,30.96
2018-04-10T09:07:30.427Z,29.64
2018-04-10T09:09:57.968Z,30.35
2018-04-10T09:12:25.692Z,30.64
2018-04-10T09:14:53.232Z,29.96
2018-04-10T09:17:20.781Z,30.33
2018-04-10T09:19:48.459Z,29.63
2018-04-10T09:22:16.005Z,29.71
2018-04-10T09:24:43.556Z,29.90
2018-04-10T09:27:11.272Z,29.26
2018-04-10T09:29:39.656Z,28.09
2018-04-10T09:32:07.200Z,28.37
2018-04-10T09:34:34.796Z,29.09
2018-04-10T09:37:02.339Z,29.08
2018-04-10T09:39:29.925Z,28.48
2018-04-10T09:41:57.540Z,29.15
2018-04-10T09:44:25.075Z,29.32
2018-04-10T09:46:52.619Z,27.86
2018-04-10T09:49:20.280Z,27.80
2018-04-10T09:51:47.817Z,28.16
2018-04-10T09:54:15.383Z,28.35
2018-04-10T09:56:42.990Z,27.92
2018-04-10T09:59:10.553Z,27.34
2018-04-10T10:01:38.104Z,27.67
2018-04-10T10:04:05.803Z,27.25
2018-04-10T10:06:33.348Z,27.27
2018-04-10T10:09:00.901Z,26.94
2018-04-10T10:11:28.568Z,26.84
2018-04-10T10:13:56.125Z,27.32
2018-04-10T10:16:23.672Z,27.04
2018-04-10T10:18:51.251Z,26.65
2018-04-10T10:21:18.816Z,26.14
2018-04-10T10:23:46.369Z,26.78
2018-04-10T10:26:13.955Z,26.85
2018-04-10T10:28:41.492Z,26.73
2018-04-10T10:31:09.059Z,26.97
2018-04-10T10:33:36.704Z,26.91
2018-04-10T10:36:04.261Z,26.47
2018-04-10T10:38:31.812Z,26.71
2018-04-10T10:40:59.396Z,26.14
2018-04-10T10:43:26.944Z,26.71
2018-04-10T10:45:54.510Z,27.28
2018-04-10T10:48:22.258Z,28.18
2018-04-10T10:50:49.809Z,27.76
2018-04-10T10:53:17.379Z,28.05
2018-04-10T10:55:45.173Z,27.76
2018-04-10T10:58:12.715Z,27.18
2018-04-10T11:00:40.269Z,26.91
2018-04-10T11:03:08.001Z,28.11
2018-04-10T11:05:35.577Z,27.91
2018-04-10T11:08:03.141Z,27.23
2018-04-10T11:10:30.810Z,26.30
2018-04-10T11:12:58.354Z,26.83
2018-04-10T11:15:26.048Z,26.71
2018-04-10T11:17:53.624Z,26.09
2018-04-10T11:20:21.173Z,25.51
2018-04-10T11:22:48.716Z,25.14
2018-04-10T11:25:16.397Z,25.93
2018-04-10T11:27:43.953Z,25.74
2018-04-10T11:30:11.496Z,25.27
2018-04-10T11:32:39.232Z,25.83
2018-04-10T11:35:06.783Z,25.33
2018-04-10T11:37:34.357Z,25.70
2018-04-10T11:40:01.954Z,25.94
2018-04-10T11:42:29.487Z,25.29
2018-04-10T11:44:57.055Z,25.03
2018-04-10T11:47:24.635Z,25.32
2018-04-10T11:49:52.177Z,25.02
2018-04-10T11:52:19.771Z,25.46
2018-04-10T11:54:47.508Z,25.32
2018-04-10T11:57:15.064Z,25.52
2018-04-10T11:59:42.629Z,25.61
2018-04-10T12:02:10.341Z,25.25
2018-04-10T12:04:37.883Z,25.44
2018-04-10T12:07:05.432Z,25.68
2018-04-10T12:09:33.011Z,24.82
2018-04-10T12:12:00.560Z,24.96
2018-04-10T12:14:28.114Z,24.24
2018-04-10T12:16:55.849Z,24.41
2018-04-10T12:19:23.393Z,23.96
2018-04-10T12:21:50.931Z,24.40
2018-04-10T12:24:18.633Z,24.39
2018-04-10T12:26:46.171Z,24.85
2018-04-10T12:29:13.702Z,25.02
2018-04-10T12:31:41.272Z,24.98
2018-04-10T12:34:08.830Z,25.64
2018-04-10T12:36:36.434Z,25.08
2018-04-10T12:39:04.032Z,24.86
2018-04-10T12:41:31.569Z,24.67
2018-04-10T12:43:59.118Z,25.47
2018-04-10T12:46:26.701Z,24.46
2018-04-10T12:48:54.251Z,25.11
2018-04-10T12:51:21.805Z,24.65
2018-04-10T12:53:49.368Z,24.76
2018-04-10T12:56:16.917Z,24.43
2018-04-10T12:58:44.543Z,23.65
2018-04-10T13:01:12.121Z,23.86
2018-04-10T13:03:39.663Z,23.54
2018-04-10T13:06:07.347Z,23.52
2018-04-10T13:08:34.923Z,23.97
2018-04-10T13:11:02.467Z,23.37
2018-04-10T13:13:30.041Z,23.83
2018-04-10T13:15:57.598Z,23.25
2018-04-10T13:18:25.165Z,23.26
2018-04-10T13:20:52.944Z,24.44
2018-04-10T13:23:20.498Z,23.50
2018-04-10T13:25:48.043Z,23.60
2018-04-10T13:28:15.649Z,23.74
2018-04-10T13:30:43.183Z,24.32
2018-04-10T13:33:14.135Z,24.42
2018-04-10T13:35:41.687Z,23.79
2018-04-10T13:38:09.280Z,23.35
2018-04-10T13:40:36.992Z,23.42
2018-04-10T13:43:04.597Z,23.61
2018-04-10T13:45:32.138Z,24.47
2018-04-10T13:47:59.861Z,23.89
2018-04-10T13:50:27.403Z,23.62
2018-04-10T13:52:54.939Z,23.76
2018-04-10T13:55:22.615Z,23.90
2018-04-10T13:57:50.155Z,23.46
2018-04-10T14:00:17.717Z,23.58
2018-04-10T14:02:45.305Z,23.51
2018-04-10T14:05:12.855Z,23.93
2018-04-10T14:07:40.422Z,24.02
2018-04-10T14:10:08.026Z,23.58
2018-04-10T14:12:35.567Z,24.19
2018-04-10T14:15:03.148Z,24.82
2018-04-10T14:17:30.748Z,25.08
2018-04-10T14:19:58.292Z,25.11
2018-04-10T14:22:25.855Z,24.71
2018-04-10T14:24:53.412Z,25.06
2018-04-10T14:27:21.016Z,24.74
2018-04-10T14:29:48.585Z,24.73
2018-04-10T14:32:16.173Z,24.49
2018-04-10T14:34:43.773Z,23.96
2018-04-10T14:37:11.344Z,24.20
2018-04-10T14:39:39.156Z,24.70
2018-04-10T14:42:06.725Z,24.75
2018-04-10T14:44:34.292Z,24.75
2018-04-10T14:47:01.972Z,24.14
2018-04-10T14:49:29.574Z,25.00
2018-04-10T14:51:57.145Z,24.96
2018-04-10T14:54:24.740Z,23.83
2018-04-10T14:56:52.287Z,24.21
2018-04-10T14:59:19.870Z,23.93
2018-04-10T15:01:47.425Z,24.53
2018-04-10T15:04:14.966Z,24.71
2018-04-10T15:06:42.765Z,26.66
2018-04-10T15:09:10.294Z,25.50
2018-04-10T15:11:37.843Z,25.66
2018-04-10T15:14:05.524Z,25.08
2018-04-10T15:16:33.077Z,25.62
2018-04-10T15:19:00.641Z,24.87
2018-04-10T15:21:28.360Z,25.11
2018-04-10T15:23:55.896Z,25.82
2018-04-10T15:26:23.444Z,25.46
2018-04-10T15:28:51.169Z,25.69
2018-04-10T15:31:18.745Z,25.63
2018-04-10T15:33:46.305Z,25.59
2018-04-10T15:36:13.892Z,24.85
2018-04-10T15:38:41.445Z,25.17
2018-04-10T15:41:09.001Z,25.57
2018-04-10T15:43:36.717Z,26.45
2018-04-10T15:46:04.302Z,26.53
2018-04-10T15:48:31.872Z,26.63
2018-04-10T15:50:59.548Z,26.89
2018-04-10T15:53:27.080Z,27.00
2018-04-10T15:55:54.620Z,27.30
2018-04-10T15:58:22.312Z,27.68
2018-04-10T16:00:49.849Z,27.28
2018-04-10T16:03:17.404Z,28.25
2018-04-10T16:05:45.061Z,26.45
2018-04-10T16:08:12.615Z,27.66
2018-04-10T16:10:40.191Z,26.83
2018-04-10T16:13:07.888Z,27.16
2018-04-10T16:15:36.468Z,28.08
2018-04-10T16:18:04.046Z,28.53
2018-04-10T16:20:31.727Z,28.38
2018-04-10T16:22:59.279Z,28.30
2018-04-10T16:25:26.838Z,28.92
2018-04-10T16:27:54.416Z,28.70
2018-04-10T16:30:21.952Z,28.82
2018-04-10T16:32:49.496Z,30.08
2018-04-10T16:35:17.068Z,29.85
2018-04-10T16:37:44.619Z,30.26
2018-04-10T16:40:12.199Z,29.33
2018-04-10T16:42:39.997Z,30.46
2018-04-10T16:45:07.552Z,32.23
2018-04-10T16:47:35.101Z,30.83
2018-04-10T16:50:02.668Z,30.59
2018-04-10T16:52:30.204Z,30.07
2018-04-10T16:54:57.746Z,30.16
2018-04-10T16:57:25.354Z,30.09
2018-04-10T16:59:52.918Z,30.09
2018-04-10T17:02:20.516Z,29.72
2018-04-10T17:04:48.253Z,31.76
2018-04-10T17:07:15.807Z,31.25
2018-04-10T17:09:43.371Z,30.63
2018-04-10T17:12:10.960Z,30.42
2018-04-10T17:14:38.529Z,30.86
2018-04-10T17:17:06.084Z,30.01
2018-04-10T17:19:33.691Z,30.16
2018-04-10T17:22:01.265Z,30.69
2018-04-10T17:24:28.872Z,30.93
2018-04-10T17:26:56.504Z,31.12
2018-04-10T17:29:24.067Z,30.72
2018-04-10T17:31:51.649Z,30.78
2018-04-10T17:34:19.413Z,30.71
2018-04-10T17:36:46.956Z,30.30
2018-04-10T17:39:14.507Z,30.80
2018-04-10T17:41:42.085Z,30.73
2018-04-10T17:44:09.623Z,30.83
2018-04-10T17:46:37.239Z,30.93
2018-04-10T17:49:04.832Z,30.87
2018-04-10T17:51:32.410Z,30.81
2018-04-10T17:53:59.965Z,30.68
2018-04-10T17:56:27.707Z,31.10
2018-04-10T17:58:55.251Z,32.07
2018-04-10T18:01:22.809Z,32.36
2018-04-10T18:03:50.503Z,32.99
2018-04-10T18:06:18.102Z,33.28
2018-04-10T18:08:45.663Z,33.47
2018-04-10T18:11:13.268Z,34.06
2018-04-10T18:13:40.853Z,34.69
2018-04-10T18:16:08.404Z,35.23
2018-04-10T18:18:36.188Z,35.49
2018-04-10T18:21:03.764Z,35.95
2018-04-10T18:23:31.330Z,36.17
2018-04-10T18:25:59.067Z,35.48
2018-04-10T18:28:26.619Z,34.73
2018-04-10T18:30:54.159Z,34.69
2018-04-10T18:33:21.739Z,35.63
2018-04-10T18:35:49.289Z,35.75
2018-04-10T18:38:16.851Z,37.06
2018-04-10T18:40:44.543Z,37.29
2018-04-10T18:43:12.109Z,37.91
2018-04-10T18:45:39.665Z,37.63
2018-04-10T18:48:07.319Z,36.91
2018-04-10T18:50:34.868Z,37.58
2018-04-10T18:53:02.424Z,38.35
2018-04-10T18:55:30.016Z,40.13
2018-04-10T18:57:57.598Z,40.46
2018-04-10T19:00:25.195Z,40.95
2018-04-10T19:02:52.916Z,41.50
2018-04-10T19:05:20.509Z,42.14
2018-04-10T19:07:48.068Z,42.13
2018-04-10T19:10:15.663Z,42.61
2018-04-10T19:12:43.219Z,42.84
2018-04-10T19:15:10.776Z,42.77
2018-04-10T19:17:38.367Z,42.71
2018-04-10T19:20:05.917Z,43.15
2018-04-10T19:22:33.528Z,43.35
2018-04-10T19:25:01.222Z,43.52
2018-04-10T19:27:28.789Z,43.64
2018-04-10T19:29:56.361Z,44.06
2018-04-10T19:32:23.950Z,44.10
2018-04-10T19:34:51.502Z,44.27
2018-04-10T19:37:19.080Z,44.90
2018-04-10T19:39:46.963Z,45.50
2018-04-10T19:42:14.521Z,45.70
2018-04-10T19:44:42.087Z,45.52
2018-04-10T19:47:09.823Z,44.86
2018-04-10T19:49:37.370Z,45.41
2018-04-10T19:52:04.958Z,44.77
2018-04-10T19:54:32.521Z,44.78
2018-04-10T19:57:00.092Z,44.90
2018-04-10T19:59:27.664Z,44.46
2018-04-10T20:01:55.208Z,43.60
2018-04-10T20:04:22.749Z,43.31
2018-04-10T20:06:50.337Z,44.71
2018-04-10T20:09:17.870Z,44.30
2018-04-10T20:11:45.433Z,44.17
2018-04-10T20:14:13.016Z,44.13
2018-04-10T20:16:40.563Z,43.42
2018-04-10T20:19:08.122Z,42.84
2018-04-10T20:21:35.705Z,42.85
2018-04-10T20:24:03.251Z,44.39
2018-04-10T20:26:30.831Z,43.87
2018-04-10T20:28:58.429Z,43.27
2018-04-10T20:31:25.976Z,42.99
2018-04-10T20:33:53.536Z,42.96
2018-04-10T20:36:21.264Z,42.76
2018-04-10T20:38:48.816Z,42.35
2018-04-10T20:41:16.350Z,43.32
2018-04-10T20:43:44.000Z,43.87
2018-04-10T20:46:11.560Z,43.18
2018-04-10T20:48:39.132Z,43.65
2018-04-10T20:51:06.737Z,43.90
2018-04-10T20:53:34.276Z,44.38
2018-04-10T20:56:01.812Z,44.39
2018-04-10T20:58:29.532Z,44.64
2018-04-10T21:00:57.088Z,44.70
2018-04-10T21:03:24.637Z,45.08
2018-04-10T21:05:52.319Z,44.83
2018-04-10T21:08:19.878Z,44.42
2018-04-10T21:10:47.408Z,44.69
2018-04-10T21:13:15.140Z,44.42
2018-04-10T21:15:42.684Z,44.35
2018-04-10T21:18:10.228Z,43.99
2018-04-10T21:20:38.092Z,43.74
2018-04-10T21:23:05.648Z,44.36
2018-04-10T21:25:33.193Z,44.47
2018-04-10T21:28:00.907Z,44.61
2018-04-10T21:30:28.454Z,45.00
2018-04-10T21:32:56.017Z,45.40
2018-04-10T21:35:23.784Z,45.62
2018-04-10T21:37:51.335Z,45.68
2018-04-10T21:40:18.879Z,45.43
2018-04-10T21:42:52.110Z,45.15
2018-04-10T21:45:19.655Z,45.63
2018-04-10T21:47:47.201Z,45.47
2018-04-10T21:50:14.794Z,45.19
2018-04-10T21:52:42.326Z,46.01
2018-04-10T21:55:09.877Z,46.18
2018-04-10T21:57:37.492Z,46.86
2018-04-10T22:00:05.110Z,48.12
2018-04-10T22:02:32.647Z,48.05
2018-04-10T22:05:00.511Z,47.98
2018-04-10T22:07:28.053Z,48.21
2018-04-10T22:09:55.609Z,48.34
2018-04-10T22:12:23.395Z,48.63
2018-04-10T22:14:50.935Z,49.18
2018-04-10T22:17:18.480Z,49.72
2018-04-10T22:19:46.167Z,49.75
2018-04-10T22:22:13.736Z,48.44
2018-04-10T22:24:41.280Z,48.51
2018-04-10T22:27:09.328Z,48.60
2018-04-10T22:29:36.876Z,48.91
2018-04-10T22:32:04.441Z,49.01
2018-04-10T22:34:31.982Z,49.55
2018-04-10T22:36:59.529Z,49.48
2018-04-10T22:44:18.608Z,49.23
2018-04-10T22:46:46.174Z,49.44
2018-04-10T22:49:13.732Z,49.55
2018-04-10T22:51:41.352Z,49.66
2018-04-10T22:54:08.916Z,49.36
2018-04-10T22:56:36.462Z,49.12
2018-04-10T22:59:04.053Z,48.10
2018-04-10T23:01:31.589Z,47.90
2018-04-10T23:03:59.156Z,48.45
2018-04-10T23:06:26.748Z,48.41
2018-04-10T23:08:54.287Z,48.66
2018-04-10T23:11:21.844Z,48.47
2018-04-10T23:13:49.719Z,48.66
2018-04-10T23:16:17.293Z,48.70
2018-04-10T23:18:44.840Z,48.53
2018-04-10T23:21:12.493Z,48.58
2018-04-10T23:23:40.028Z,48.71
2018-04-10T23:26:07.582Z,50.02
2018-04-10T23:28:35.151Z,50.29
2018-04-10T23:31:02.696Z,51.01
2018-04-10T23:33:30.265Z,50.86
2018-04-10T23:35:57.986Z,51.13
2018-04-10T23:38:25.532Z,51.97
2018-04-10T23:40:53.096Z,51.88
2018-04-10T23:43:20.987Z,51.80
2018-04-10T23:45:48.544Z,51.71
2018-04-10T23:48:16.135Z,51.24
2018-04-10T23:50:43.825Z,51.84
2018-04-10T23:53:11.361Z,52.20
2018-04-10T23:55:38.910Z,52.21
2018-04-10T23:58:06.473Z,52.59
